createdAt,value
2019-05-10T00:00:07.031Z,99.99
2019-05-10T00:01:06.954Z,99.99
2019-05-10T00:02:06.882Z,99.99
2019-05-10T00:03:06.795Z,99.99
2019-05-10T00:04:06.706Z,99.99
2019-05-10T00:05:06.631Z,99.99
2019-05-10T00:06:06.545Z,99.99
2019-05-10T00:07:06.468Z,99.99
2019-05-10T00:08:06.384Z,99.99
2019-05-10T00:09:06.306Z,99.99
2019-05-10T00:10:06.219Z,99.99
2019-05-10T00:11:06.166Z,99.99
2019-05-10T00:12:06.080Z,99.99
2019-05-10T00:13:05.985Z,99.99
2019-05-10T00:14:05.898Z,99.99
2019-05-10T00:15:05.819Z,99.99
2019-05-10T00:16:05.734Z,99.99
2019-05-10T00:17:05.657Z,99.99
2019-05-10T00:18:05.582Z,99.99
2019-05-10T00:19:05.496Z,99.99
2019-05-10T00:20:05.408Z,99.99
2019-05-10T00:21:05.332Z,99.99
2019-05-10T00:22:05.247Z,99.99
2019-05-10T00:23:05.170Z,99.99
2019-05-10T00:24:05.082Z,99.99
2019-05-10T00:25:05.279Z,99.99
2019-05-10T00:26:04.924Z,99.99
2019-05-10T00:27:04.844Z,99.99
2019-05-10T00:28:04.762Z,99.99
2019-05-10T00:29:04.683Z,99.99
2019-05-10T00:30:04.595Z,99.99
2019-05-10T00:31:04.520Z,99.99
2019-05-10T00:32:04.433Z,99.99
2019-05-10T00:33:04.358Z,99.99
2019-05-10T00:34:04.270Z,99.99
2019-05-10T00:35:04.197Z,99.99
2019-05-10T00:36:04.108Z,99.99
2019-05-10T00:37:04.035Z,99.99
2019-05-10T00:38:03.957Z,99.99
2019-05-10T00:39:03.871Z,99.99
2019-05-10T00:40:03.784Z,99.99
2019-05-10T00:41:03.709Z,99.99
2019-05-10T00:42:03.621Z,99.99
2019-05-10T00:43:03.550Z,99.99
2019-05-10T00:44:03.474Z,99.99
2019-05-10T00:45:03.420Z,99.99
2019-05-10T00:46:03.297Z,99.99
2019-05-10T00:47:03.225Z,99.99
2019-05-10T00:48:03.135Z,99.99
2019-05-10T00:49:03.064Z,99.99
2019-05-10T00:50:02.976Z,99.99
2019-05-10T00:51:02.911Z,99.99
2019-05-10T00:52:02.816Z,99.99
2019-05-10T00:53:02.735Z,99.99
2019-05-10T00:54:02.650Z,99.99
2019-05-10T00:55:16.662Z,99.99
2019-05-10T00:56:02.486Z,99.99
2019-05-10T00:57:02.412Z,99.99
2019-05-10T00:58:02.323Z,99.99
2019-05-10T00:59:02.248Z,99.99
2019-05-10T01:00:02.174Z,99.99
2019-05-10T01:01:02.086Z,99.99
2019-05-10T01:02:02.020Z,99.99
2019-05-10T01:03:01.924Z,99.99
2019-05-10T01:04:01.838Z,99.99
2019-05-10T01:05:01.768Z,99.99
2019-05-10T01:06:01.701Z,99.99
2019-05-10T01:07:01.601Z,99.99
2019-05-10T01:08:01.513Z,99.99
2019-05-10T01:09:01.458Z,99.99
2019-05-10T01:10:01.362Z,99.99
2019-05-10T01:11:01.274Z,99.99
2019-05-10T01:12:01.205Z,99.99
2019-05-10T01:13:01.112Z,99.99
2019-05-10T01:14:01.026Z,99.99
2019-05-10T01:15:00.963Z,99.99
2019-05-10T01:16:00.875Z,99.99
2019-05-10T01:17:00.800Z,99.99
2019-05-10T01:18:00.713Z,99.99
2019-05-10T01:19:00.628Z,99.99
2019-05-10T01:20:00.563Z,99.99
2019-05-10T01:21:00.463Z,99.99
2019-05-10T01:22:00.392Z,99.99
2019-05-10T01:23:00.302Z,99.99
2019-05-10T01:24:00.225Z,99.99
2019-05-10T01:25:00.140Z,99.99
2019-05-10T01:26:00.068Z,99.99
2019-05-10T01:26:59.975Z,99.99
2019-05-10T01:27:59.901Z,99.99
2019-05-10T01:28:59.815Z,99.99
2019-05-10T01:29:59.740Z,99.99
2019-05-10T01:30:59.652Z,99.99
2019-05-10T01:31:59.589Z,99.99
2019-05-10T01:32:59.489Z,99.99
2019-05-10T01:33:59.415Z,99.99
2019-05-10T01:34:59.326Z,99.99
2019-05-10T01:35:59.252Z,99.99
2019-05-10T01:36:59.165Z,99.99
2019-05-10T01:37:59.090Z,99.99
2019-05-10T01:38:59.002Z,99.99
2019-05-10T01:39:58.928Z,99.99
2019-05-10T01:40:58.847Z,99.99
2019-05-10T01:41:58.767Z,99.99
2019-05-10T01:42:58.679Z,99.43
2019-05-10T01:43:58.603Z,99.43
2019-05-10T01:44:58.516Z,99.33
2019-05-10T01:45:58.442Z,99.99
2019-05-10T01:46:58.354Z,99.90
2019-05-10T01:47:58.283Z,98.66
2019-05-10T01:48:58.203Z,98.28
2019-05-10T01:49:58.119Z,98.94
2019-05-10T01:50:58.041Z,97.80
2019-05-10T01:51:57.959Z,98.47
2019-05-10T01:52:57.879Z,98.37
2019-05-10T01:53:57.793Z,97.89
2019-05-10T01:54:57.718Z,97.71
2019-05-10T01:55:57.629Z,98.28
2019-05-10T01:56:57.567Z,98.28
2019-05-10T01:57:57.467Z,97.13
2019-05-10T01:58:57.394Z,97.61
2019-05-10T01:59:57.306Z,97.13
2019-05-10T02:00:57.230Z,97.61
2019-05-10T02:01:57.143Z,96.94
2019-05-10T02:02:57.068Z,96.66
2019-05-10T02:03:56.980Z,96.56
2019-05-10T02:04:56.905Z,97.71
2019-05-10T02:05:56.825Z,96.66
2019-05-10T02:06:56.743Z,97.13
2019-05-10T02:07:56.664Z,97.13
2019-05-10T02:08:56.581Z,96.75
2019-05-10T02:09:56.496Z,97.13
2019-05-10T02:10:56.419Z,97.61
2019-05-10T02:11:56.333Z,96.75
2019-05-10T02:12:56.262Z,97.03
2019-05-10T02:13:56.182Z,97.23
2019-05-10T02:14:56.095Z,97.80
2019-05-10T02:15:56.019Z,97.13
2019-05-10T02:16:55.931Z,98.18
2019-05-10T02:17:55.858Z,98.47
2019-05-10T02:18:55.770Z,98.94
2019-05-10T02:19:55.696Z,99.23
2019-05-10T02:20:55.608Z,99.62
2019-05-10T02:21:55.535Z,98.66
2019-05-10T02:22:55.446Z,98.57
2019-05-10T02:23:55.370Z,98.66
2019-05-10T02:24:55.283Z,97.89
2019-05-10T02:26:08.476Z,97.89
2019-05-10T02:26:55.121Z,99.99
2019-05-10T02:27:55.046Z,99.99
2019-05-10T02:28:54.958Z,99.99
2019-05-10T02:29:54.884Z,99.99
2019-05-10T02:30:54.817Z,99.99
2019-05-10T02:31:54.725Z,99.99
2019-05-10T02:32:54.646Z,99.99
2019-05-10T02:33:54.562Z,99.99
2019-05-10T02:34:54.472Z,99.99
2019-05-10T02:35:54.408Z,99.99
2019-05-10T02:36:54.312Z,99.99
2019-05-10T02:37:54.237Z,99.99
2019-05-10T02:38:54.164Z,99.99
2019-05-10T02:39:54.076Z,99.99
2019-05-10T02:40:54.000Z,99.99
2019-05-10T02:41:53.912Z,99.99
2019-05-10T02:42:53.822Z,99.99
2019-05-10T02:43:53.749Z,99.99
2019-05-10T02:44:53.676Z,99.99
2019-05-10T02:45:53.585Z,99.99
2019-05-10T02:46:53.498Z,99.99
2019-05-10T02:47:53.427Z,99.99
2019-05-10T02:48:53.345Z,99.99
2019-05-10T02:49:53.261Z,99.99
2019-05-10T02:50:53.178Z,99.99
2019-05-10T02:51:53.102Z,99.99
2019-05-10T02:52:53.014Z,99.99
2019-05-10T02:53:52.937Z,99.99
2019-05-10T02:54:52.895Z,99.99
2019-05-10T02:55:52.774Z,99.99
2019-05-10T02:56:52.685Z,99.99
2019-05-10T02:57:52.611Z,99.99
2019-05-10T02:58:52.528Z,99.99
2019-05-10T02:59:52.451Z,99.99
2019-05-10T03:00:52.365Z,99.99
2019-05-10T03:01:52.276Z,99.99
2019-05-10T03:02:52.202Z,99.99
2019-05-10T03:03:52.116Z,99.99
2019-05-10T03:04:52.043Z,99.99
2019-05-10T03:05:51.950Z,99.99
2019-05-10T03:06:51.878Z,99.99
2019-05-10T03:07:51.788Z,99.99
2019-05-10T03:08:51.725Z,99.99
2019-05-10T03:09:51.636Z,99.99
2019-05-10T03:10:51.565Z,99.99
2019-05-10T03:11:51.463Z,99.99
2019-05-10T03:12:51.388Z,99.99
2019-05-10T03:13:51.301Z,99.99
2019-05-10T03:14:51.226Z,99.99
2019-05-10T03:15:51.141Z,99.99
2019-05-10T03:16:51.064Z,99.99
2019-05-10T03:17:50.977Z,99.99
2019-05-10T03:18:50.891Z,99.99
2019-05-10T03:19:50.830Z,99.99
2019-05-10T03:20:50.729Z,99.99
2019-05-10T03:21:50.655Z,99.99
2019-05-10T03:22:50.567Z,99.99
2019-05-10T03:23:50.490Z,99.99
2019-05-10T03:24:50.416Z,99.99
2019-05-10T03:25:50.328Z,99.99
2019-05-10T03:26:51.482Z,99.99
2019-05-10T03:27:50.171Z,99.99
2019-05-10T03:28:50.079Z,99.99
2019-05-10T03:29:50.003Z,99.99
2019-05-10T03:30:49.944Z,99.99
2019-05-10T03:31:49.841Z,99.99
2019-05-10T03:32:49.776Z,99.99
2019-05-10T03:33:55.645Z,99.99
2019-05-10T03:34:49.686Z,99.99
2019-05-10T03:35:49.517Z,99.99
2019-05-10T03:36:49.429Z,99.99
2019-05-10T03:37:49.343Z,99.99
2019-05-10T03:38:49.270Z,99.99
2019-05-10T03:39:49.179Z,99.99
2019-05-10T03:40:49.104Z,99.99
2019-05-10T03:41:49.017Z,99.99
2019-05-10T03:42:48.944Z,99.99
2019-05-10T03:43:48.854Z,99.99
2019-05-10T03:44:48.785Z,99.99
2019-05-10T03:45:48.692Z,99.99
2019-05-10T03:46:48.617Z,99.99
2019-05-10T03:47:48.533Z,99.99
2019-05-10T03:48:48.459Z,99.99
2019-05-10T03:49:48.368Z,99.99
2019-05-10T03:50:48.293Z,99.99
2019-05-10T03:51:48.209Z,99.99
2019-05-10T03:52:51.949Z,99.99
2019-05-10T03:53:48.042Z,99.99
2019-05-10T03:54:47.967Z,99.99
2019-05-10T03:55:47.882Z,99.99
2019-05-10T03:56:47.806Z,99.99
2019-05-10T03:57:47.719Z,99.99
2019-05-10T03:58:47.636Z,99.99
2019-05-10T03:59:47.558Z,99.99
2019-05-10T04:00:47.469Z,99.99
2019-05-10T04:01:47.399Z,99.99
2019-05-10T04:02:47.351Z,99.99
2019-05-10T04:03:47.233Z,99.99
2019-05-10T04:04:47.159Z,99.99
2019-05-10T04:05:47.079Z,99.99
2019-05-10T04:06:46.981Z,99.99
2019-05-10T04:07:46.911Z,99.99
2019-05-10T04:08:46.819Z,99.99
2019-05-10T04:09:46.745Z,99.99
2019-05-10T04:10:46.745Z,99.99
2019-05-10T04:11:46.583Z,99.99
2019-05-10T04:12:46.555Z,99.99
2019-05-10T04:13:46.420Z,99.99
2019-05-10T04:14:46.355Z,99.99
2019-05-10T04:15:46.259Z,99.99
2019-05-10T04:16:46.170Z,99.99
2019-05-10T04:17:49.953Z,99.99
2019-05-10T04:18:46.013Z,99.99
2019-05-10T04:19:45.924Z,99.99
2019-05-10T04:20:45.860Z,99.99
2019-05-10T04:21:45.759Z,99.99
2019-05-10T04:22:45.686Z,99.99
2019-05-10T04:23:45.662Z,99.99
2019-05-10T04:24:45.522Z,99.99
2019-05-10T04:25:45.440Z,99.99
2019-05-10T04:26:45.360Z,99.99
2019-05-10T04:27:45.271Z,99.99
2019-05-10T04:28:45.196Z,99.99
2019-05-10T04:29:45.111Z,99.99
2019-05-10T04:30:45.035Z,99.99
2019-05-10T04:31:44.947Z,99.99
2019-05-10T04:32:44.883Z,99.99
2019-05-10T04:33:44.784Z,99.99
2019-05-10T04:34:44.710Z,99.99
2019-05-10T04:35:44.626Z,99.99
2019-05-10T04:36:44.550Z,99.99
2019-05-10T04:37:44.461Z,99.99
2019-05-10T04:38:44.387Z,99.99
2019-05-10T04:39:44.305Z,99.99
2019-05-10T04:40:44.223Z,99.99
2019-05-10T04:41:44.149Z,99.99
2019-05-10T04:42:44.062Z,99.99
2019-05-10T04:43:43.983Z,99.99
2019-05-10T04:44:43.898Z,99.99
2019-05-10T04:45:43.813Z,99.99
2019-05-10T04:46:43.735Z,99.99
2019-05-10T04:47:43.647Z,99.99
2019-05-10T04:48:43.572Z,99.99
2019-05-10T04:49:43.494Z,99.99
2019-05-10T04:50:43.417Z,99.99
2019-05-10T04:51:43.337Z,99.99
2019-05-10T04:52:43.249Z,99.99
2019-05-10T04:53:43.163Z,99.99
2019-05-10T04:54:43.090Z,99.99
2019-05-10T04:55:43.001Z,99.99
2019-05-10T04:56:42.926Z,99.99
2019-05-10T04:57:50.592Z,99.99
2019-05-10T04:58:42.763Z,99.99
2019-05-10T04:59:42.675Z,99.99
2019-05-10T05:00:42.600Z,99.99
2019-05-10T05:01:42.513Z,99.99
2019-05-10T05:02:42.443Z,99.99
2019-05-10T05:03:42.351Z,99.99
2019-05-10T05:04:42.275Z,99.99
2019-05-10T05:05:42.188Z,99.99
2019-05-10T05:06:42.113Z,99.99
2019-05-10T05:07:42.038Z,99.99
2019-05-10T05:08:41.950Z,99.99
2019-05-10T05:09:41.868Z,99.99
2019-05-10T05:10:41.789Z,99.99
2019-05-10T05:11:41.705Z,99.99
2019-05-10T05:12:41.627Z,99.99
2019-05-10T05:13:41.560Z,99.99
2019-05-10T05:14:41.471Z,99.99
2019-05-10T05:15:41.376Z,99.99
2019-05-10T05:16:41.300Z,99.99
2019-05-10T05:17:41.226Z,99.99
2019-05-10T05:18:41.139Z,99.99
2019-05-10T05:19:41.152Z,99.99
2019-05-10T05:20:40.976Z,99.99
2019-05-10T05:21:40.902Z,99.99
2019-05-10T05:22:40.826Z,99.99
2019-05-10T05:23:40.743Z,99.99
2019-05-10T05:24:40.651Z,99.99
2019-05-10T05:25:41.819Z,99.99
2019-05-10T05:26:40.489Z,99.99
2019-05-10T05:27:40.417Z,99.99
2019-05-10T05:28:40.327Z,99.99
2019-05-10T05:29:40.253Z,99.99
2019-05-10T05:30:40.167Z,99.99
2019-05-10T05:31:40.097Z,99.99
2019-05-10T05:32:44.386Z,99.99
2019-05-10T05:33:39.928Z,99.99
2019-05-10T05:34:39.853Z,99.99
2019-05-10T05:35:39.799Z,99.99
2019-05-10T05:36:39.691Z,99.99
2019-05-10T05:37:39.603Z,99.99
2019-05-10T05:38:40.310Z,99.99
2019-05-10T05:39:39.442Z,99.29
2019-05-10T05:40:39.371Z,99.96
2019-05-10T05:41:48.280Z,98.81
2019-05-10T05:42:39.206Z,97.75
2019-05-10T05:43:45.337Z,97.95
2019-05-10T05:44:39.042Z,96.51
2019-05-10T05:45:38.967Z,97.13
2019-05-10T05:46:38.885Z,97.04
2019-05-10T05:47:42.241Z,96.94
2019-05-10T05:48:40.441Z,97.33
2019-05-10T05:49:38.642Z,95.79
2019-05-10T05:50:38.568Z,96.18
2019-05-10T05:51:38.479Z,96.08
2019-05-10T05:52:38.405Z,96.56
2019-05-10T05:53:42.166Z,96.18
2019-05-10T05:54:38.251Z,96.08
2019-05-10T05:55:38.169Z,96.84
2019-05-10T05:56:38.080Z,96.47
2019-05-10T05:57:38.005Z,98.57
2019-05-10T05:58:43.667Z,98.76
2019-05-10T05:59:37.845Z,98.71
2019-05-10T06:00:44.389Z,97.85
2019-05-10T06:01:37.683Z,98.04
2019-05-10T06:02:43.930Z,97.47
2019-05-10T06:03:37.531Z,97.37
2019-05-10T06:04:40.955Z,97.95
2019-05-10T06:05:37.486Z,97.37
2019-05-10T06:06:37.284Z,97.56
2019-05-10T06:07:37.932Z,98.04
2019-05-10T06:08:37.135Z,97.95
2019-05-10T06:09:37.740Z,98.14
2019-05-10T06:10:36.970Z,98.71
2019-05-10T06:11:37.892Z,98.52
2019-05-10T06:12:36.821Z,98.81
2019-05-10T06:13:36.734Z,98.04
2019-05-10T06:14:36.660Z,98.90
2019-05-10T06:15:36.575Z,99.38
2019-05-10T06:16:36.483Z,98.90
2019-05-10T06:17:36.407Z,99.76
2019-05-10T06:18:36.332Z,99.86
2019-05-10T06:19:36.246Z,99.57
2019-05-10T06:20:38.320Z,99.90
2019-05-10T06:21:36.083Z,99.48
2019-05-10T06:22:38.222Z,99.99
2019-05-10T06:23:36.874Z,99.67
2019-05-10T06:24:35.846Z,98.90
2019-05-10T06:25:41.977Z,98.90
2019-05-10T06:26:35.683Z,99.00
2019-05-10T06:27:40.746Z,99.00
2019-05-10T06:28:57.607Z,98.52
2019-05-10T06:29:35.448Z,98.61
2019-05-10T06:30:35.372Z,97.95
2019-05-10T06:31:35.284Z,98.81
2019-05-10T06:32:35.209Z,98.95
2019-05-10T06:33:39.508Z,99.24
2019-05-10T06:34:38.744Z,98.28
2019-05-10T06:35:34.972Z,98.09
2019-05-10T06:36:34.903Z,97.42
2019-05-10T06:37:34.809Z,97.52
2019-05-10T06:38:34.747Z,96.94
2019-05-10T06:39:34.648Z,96.94
2019-05-10T06:40:39.556Z,98.00
2019-05-10T06:41:34.487Z,96.75
2019-05-10T06:42:36.038Z,95.61
2019-05-10T06:43:34.341Z,97.23
2019-05-10T06:44:34.249Z,96.94
2019-05-10T06:45:34.174Z,97.90
2019-05-10T06:46:34.100Z,97.33
2019-05-10T06:47:34.011Z,96.37
2019-05-10T06:48:33.943Z,96.84
2019-05-10T06:49:33.849Z,96.27
2019-05-10T06:50:33.774Z,97.18
2019-05-10T06:51:33.699Z,97.33
2019-05-10T06:52:33.612Z,97.33
2019-05-10T06:53:33.537Z,96.66
2019-05-10T06:54:33.449Z,96.75
2019-05-10T06:55:33.377Z,97.23
2019-05-10T06:56:33.300Z,97.13
2019-05-10T06:57:33.212Z,96.84
2019-05-10T06:58:36.522Z,97.33
2019-05-10T06:59:33.062Z,97.13
2019-05-10T07:00:38.028Z,96.75
2019-05-10T07:01:38.174Z,96.27
2019-05-10T07:02:32.812Z,95.70
2019-05-10T07:03:32.738Z,95.84
2019-05-10T07:04:37.753Z,96.27
2019-05-10T07:05:32.576Z,95.51
2019-05-10T07:06:32.501Z,95.79
2019-05-10T07:07:43.359Z,96.08
2019-05-10T07:08:43.807Z,96.13
2019-05-10T07:09:59.996Z,95.94
2019-05-10T07:10:33.723Z,95.84
2019-05-10T07:11:32.103Z,94.89
2019-05-10T07:12:32.070Z,95.12
2019-05-10T07:13:31.941Z,94.02
2019-05-10T07:14:31.863Z,94.50
2019-05-10T07:15:35.931Z,95.27
2019-05-10T07:16:31.701Z,95.46
2019-05-10T07:17:39.174Z,95.07
2019-05-10T07:18:31.539Z,95.84
2019-05-10T07:19:34.979Z,96.13
2019-05-10T07:20:31.389Z,95.07
2019-05-10T07:21:31.304Z,95.27
2019-05-10T07:22:31.235Z,96.13
2019-05-10T07:23:31.142Z,96.03
2019-05-10T07:24:31.065Z,96.80
2019-05-10T07:25:30.990Z,96.32
2019-05-10T07:26:30.914Z,96.22
2019-05-10T07:27:36.407Z,95.56
2019-05-10T07:28:30.755Z,94.31
2019-05-10T07:29:36.279Z,94.40
2019-05-10T07:30:30.602Z,94.50
2019-05-10T07:31:30.517Z,94.69
2019-05-10T07:32:30.430Z,94.45
2019-05-10T07:33:32.137Z,93.98
2019-05-10T07:34:30.268Z,93.98
2019-05-10T07:35:31.066Z,93.59
2019-05-10T07:36:30.987Z,93.30
2019-05-10T07:37:30.030Z,93.16
2019-05-10T07:38:30.674Z,91.82
2019-05-10T07:39:29.879Z,91.28
2019-05-10T07:40:29.810Z,90.23
2019-05-10T07:41:29.728Z,88.70
2019-05-10T07:42:29.643Z,88.60
2019-05-10T07:43:29.566Z,90.00
2019-05-10T07:44:29.480Z,90.14
2019-05-10T07:45:29.404Z,89.37
2019-05-10T07:46:29.318Z,89.12
2019-05-10T07:47:30.592Z,87.59
2019-05-10T07:48:29.167Z,88.26
2019-05-10T07:49:30.369Z,87.92
2019-05-10T07:50:29.010Z,85.91
2019-05-10T07:51:30.204Z,84.85
2019-05-10T07:52:28.856Z,84.60
2019-05-10T07:53:28.775Z,84.70
2019-05-10T07:54:28.692Z,84.51
2019-05-10T07:55:30.035Z,83.20
2019-05-10T07:56:28.545Z,83.25
2019-05-10T07:57:28.468Z,82.67
2019-05-10T07:58:28.389Z,82.57
2019-05-10T07:59:33.808Z,81.90
2019-05-10T08:00:28.234Z,82.23
2019-05-10T08:01:32.538Z,82.14
2019-05-10T08:02:28.084Z,81.84
2019-05-10T08:03:29.795Z,81.94
2019-05-10T08:04:33.187Z,81.27
2019-05-10T08:05:29.604Z,81.81
2019-05-10T08:06:33.897Z,81.86
2019-05-10T08:07:29.424Z,82.78
2019-05-10T08:08:29.589Z,82.82
2019-05-10T08:09:31.464Z,82.05
2019-05-10T08:10:28.939Z,83.07
2019-05-10T08:11:28.587Z,84.22
2019-05-10T08:12:28.830Z,85.42
2019-05-10T08:13:28.403Z,86.29
2019-05-10T08:14:29.012Z,86.05
2019-05-10T08:15:32.634Z,85.47
2019-05-10T08:16:28.906Z,85.22
2019-05-10T08:17:28.701Z,84.26
2019-05-10T08:18:29.163Z,82.76
2019-05-10T08:19:26.788Z,81.90
2019-05-10T08:20:41.442Z,81.96
2019-05-10T08:21:26.706Z,82.73
2019-05-10T08:22:26.559Z,83.26
2019-05-10T08:23:27.972Z,82.97
2019-05-10T08:24:26.409Z,84.41
2019-05-10T08:25:29.043Z,85.24
2019-05-10T08:26:26.249Z,85.91
2019-05-10T08:27:26.173Z,86.29
2019-05-10T08:28:28.096Z,86.00
2019-05-10T08:29:26.021Z,85.57
2019-05-10T08:30:29.109Z,85.42
2019-05-10T08:31:26.356Z,84.51
2019-05-10T08:32:29.918Z,83.64
2019-05-10T08:33:25.722Z,83.20
2019-05-10T08:34:29.070Z,82.48
2019-05-10T08:35:25.572Z,82.05
2019-05-10T08:36:25.488Z,82.24
2019-05-10T08:37:33.159Z,83.16
2019-05-10T08:38:25.336Z,82.97
2019-05-10T08:39:25.260Z,83.74
2019-05-10T08:40:33.618Z,84.31
2019-05-10T08:41:25.112Z,82.82
2019-05-10T08:42:37.719Z,81.52
2019-05-10T08:43:24.973Z,80.71
2019-05-10T08:44:24.885Z,82.01
2019-05-10T08:45:24.811Z,82.68
2019-05-10T08:46:33.020Z,83.03
2019-05-10T08:47:27.679Z,84.12
2019-05-10T08:48:27.391Z,82.97
2019-05-10T08:49:31.176Z,83.26
2019-05-10T08:50:43.491Z,82.97
2019-05-10T08:51:24.349Z,84.41
2019-05-10T08:52:30.560Z,84.66
2019-05-10T08:53:24.199Z,85.58
2019-05-10T08:54:26.489Z,85.77
2019-05-10T08:55:24.065Z,86.54
2019-05-10T08:56:24.356Z,87.21
2019-05-10T08:57:23.888Z,87.68
2019-05-10T08:58:31.444Z,86.54
2019-05-10T08:59:26.571Z,86.54
2019-05-10T09:00:41.068Z,87.01
2019-05-10T09:01:29.481Z,88.07
2019-05-10T09:02:29.040Z,87.88
2019-05-10T09:03:23.444Z,86.44
2019-05-10T09:04:23.351Z,86.19
2019-05-10T09:05:29.139Z,84.37
2019-05-10T09:06:23.210Z,82.93
2019-05-10T09:07:23.363Z,84.37
2019-05-10T09:08:25.007Z,83.36
2019-05-10T09:09:22.976Z,83.98
2019-05-10T09:10:22.889Z,84.27
2019-05-10T09:11:23.211Z,84.18
2019-05-10T09:12:23.114Z,84.18
2019-05-10T09:13:22.869Z,84.37
2019-05-10T09:14:24.074Z,84.18
2019-05-10T09:15:22.515Z,84.23
2019-05-10T09:16:23.713Z,84.33
2019-05-10T09:17:26.854Z,84.33
2019-05-10T09:18:22.947Z,86.01
2019-05-10T09:19:27.754Z,85.44
2019-05-10T09:20:26.327Z,86.11
2019-05-10T09:21:22.435Z,86.01
2019-05-10T09:22:23.399Z,86.68
2019-05-10T09:23:22.785Z,87.84
2019-05-10T09:24:22.837Z,87.35
2019-05-10T09:25:29.278Z,87.07
2019-05-10T09:26:22.695Z,87.41
2019-05-10T09:27:22.449Z,87.88
2019-05-10T09:28:21.873Z,88.08
2019-05-10T09:29:21.906Z,87.79
2019-05-10T09:30:22.000Z,88.46
2019-05-10T09:31:25.259Z,89.90
2019-05-10T09:32:28.683Z,88.94
2019-05-10T09:33:22.429Z,89.23
2019-05-10T09:34:23.763Z,88.75
2019-05-10T09:35:22.163Z,88.37
2019-05-10T09:36:25.160Z,88.75
2019-05-10T09:37:22.463Z,89.04
2019-05-10T09:38:22.118Z,88.75
2019-05-10T09:39:24.252Z,88.27
2019-05-10T09:40:21.988Z,88.56
2019-05-10T09:41:22.445Z,88.75
2019-05-10T09:42:26.552Z,89.23
2019-05-10T09:43:23.576Z,89.61
2019-05-10T09:44:20.257Z,88.56
2019-05-10T09:45:22.234Z,88.46
2019-05-10T09:46:22.756Z,88.08
2019-05-10T09:47:22.086Z,88.75
2019-05-10T09:48:22.646Z,88.22
2019-05-10T09:49:19.856Z,87.12
2019-05-10T09:50:19.780Z,87.02
2019-05-10T09:51:28.021Z,86.74
2019-05-10T09:52:19.633Z,86.64
2019-05-10T09:53:23.655Z,87.02
2019-05-10T09:54:23.302Z,87.88
2019-05-10T09:55:19.394Z,88.46
2019-05-10T09:56:19.307Z,88.37
2019-05-10T09:57:19.240Z,88.75
2019-05-10T09:58:22.232Z,88.84
2019-05-10T09:59:19.095Z,89.04
2019-05-10T10:00:18.995Z,88.75
2019-05-10T10:01:21.624Z,88.84
2019-05-10T10:02:19.040Z,88.56
2019-05-10T10:03:18.757Z,88.75
2019-05-10T10:04:20.458Z,89.13
2019-05-10T10:05:18.608Z,89.13
2019-05-10T10:06:18.522Z,90.14
2019-05-10T10:07:18.982Z,89.66
2019-05-10T10:08:18.370Z,90.05
2019-05-10T10:09:18.286Z,90.62
2019-05-10T10:10:28.504Z,90.53
2019-05-10T10:11:18.701Z,90.72
2019-05-10T10:12:18.063Z,89.57
2019-05-10T10:13:36.017Z,89.23
2019-05-10T10:14:18.042Z,88.46
2019-05-10T10:15:25.263Z,88.08
2019-05-10T10:16:19.179Z,88.37
2019-05-10T10:17:20.406Z,87.50
2019-05-10T10:18:21.277Z,86.11
2019-05-10T10:19:20.359Z,85.67
2019-05-10T10:20:17.421Z,84.95
2019-05-10T10:21:18.868Z,83.45
2019-05-10T10:22:17.387Z,82.01
2019-05-10T10:23:17.411Z,81.72
2019-05-10T10:24:20.033Z,79.32
2019-05-10T10:25:17.677Z,79.22
2019-05-10T10:26:18.595Z,79.80
2019-05-10T10:27:17.181Z,81.43
2019-05-10T10:28:18.716Z,80.96
2019-05-10T10:29:17.293Z,80.43
2019-05-10T10:30:21.097Z,81.40
2019-05-10T10:31:28.691Z,82.26
2019-05-10T10:32:16.485Z,82.45
2019-05-10T10:33:24.435Z,82.79
2019-05-10T10:34:17.368Z,83.27
2019-05-10T10:35:20.996Z,83.27
2019-05-10T10:36:16.181Z,83.47
2019-05-10T10:37:22.224Z,83.04
2019-05-10T10:38:17.890Z,83.27
2019-05-10T10:39:17.055Z,83.94
2019-05-10T10:40:18.257Z,83.56
2019-05-10T10:41:19.152Z,82.89
2019-05-10T10:42:17.610Z,83.27
2019-05-10T10:43:17.817Z,82.60
2019-05-10T10:44:18.020Z,82.41
2019-05-10T10:45:17.347Z,81.97
2019-05-10T10:46:17.590Z,80.28
2019-05-10T10:47:15.325Z,80.09
2019-05-10T10:48:15.236Z,80.02
2019-05-10T10:49:17.620Z,76.26
2019-05-10T10:50:17.083Z,75.98
2019-05-10T10:51:15.012Z,73.51
2019-05-10T10:52:17.101Z,74.73
2019-05-10T10:53:14.863Z,73.19
2019-05-10T10:54:17.436Z,73.44
2019-05-10T10:55:14.701Z,73.63
2019-05-10T10:56:14.626Z,74.69
2019-05-10T10:57:14.553Z,74.85
2019-05-10T10:58:14.475Z,75.62
2019-05-10T10:59:14.401Z,77.21
2019-05-10T11:00:17.580Z,76.54
2019-05-10T11:01:21.661Z,76.25
2019-05-10T11:02:32.082Z,77.69
2019-05-10T11:03:14.088Z,77.65
2019-05-10T11:04:16.309Z,78.61
2019-05-10T11:05:13.951Z,79.09
2019-05-10T11:06:15.473Z,79.28
2019-05-10T11:07:13.789Z,80.78
2019-05-10T11:08:13.714Z,80.01
2019-05-10T11:09:13.655Z,79.72
2019-05-10T11:10:18.586Z,79.63
2019-05-10T11:11:13.481Z,79.44
2019-05-10T11:12:14.794Z,79.91
2019-05-10T11:13:20.353Z,79.96
2019-05-10T11:14:13.252Z,79.34
2019-05-10T11:15:16.458Z,78.77
2019-05-10T11:16:15.778Z,78.77
2019-05-10T11:17:13.017Z,79.05
2019-05-10T11:18:12.940Z,79.14
2019-05-10T11:19:15.604Z,78.47
2019-05-10T11:20:12.790Z,79.44
2019-05-10T11:21:12.716Z,79.24
2019-05-10T11:22:12.644Z,79.05
2019-05-10T11:23:15.719Z,79.05
2019-05-10T11:24:18.110Z,79.24
2019-05-10T11:25:13.040Z,79.63
2019-05-10T11:26:12.329Z,79.34
2019-05-10T11:27:15.844Z,79.72
2019-05-10T11:28:12.202Z,79.34
2019-05-10T11:29:14.221Z,80.11
2019-05-10T11:30:12.295Z,78.86
2019-05-10T11:31:11.943Z,78.13
2019-05-10T11:32:16.314Z,78.42
2019-05-10T11:33:25.891Z,77.78
2019-05-10T11:34:11.705Z,77.88
2019-05-10T11:35:11.837Z,76.44
2019-05-10T11:36:11.646Z,76.48
2019-05-10T11:37:11.480Z,75.90
2019-05-10T11:38:12.732Z,74.40
2019-05-10T11:39:25.286Z,73.61
2019-05-10T11:40:11.397Z,71.69
2019-05-10T11:41:13.575Z,71.91
2019-05-10T11:42:11.470Z,72.24
2019-05-10T11:43:11.030Z,69.71
2019-05-10T11:44:12.073Z,68.39
2019-05-10T11:45:11.179Z,64.86
2019-05-10T11:46:11.756Z,67.03
2019-05-10T11:47:23.416Z,68.16
2019-05-10T11:48:10.921Z,69.85
2019-05-10T11:49:10.732Z,69.67
2019-05-10T11:50:10.743Z,70.01
2019-05-10T11:51:15.387Z,69.22
2019-05-10T11:52:13.099Z,67.97
2019-05-10T11:53:13.391Z,69.57
2019-05-10T11:54:11.165Z,70.30
2019-05-10T11:55:11.364Z,70.37
2019-05-10T11:56:14.131Z,72.06
2019-05-10T11:57:13.487Z,73.15
2019-05-10T11:59:15.904Z,72.67
2019-05-10T12:00:14.646Z,70.18
2019-05-10T12:01:17.625Z,69.06
2019-05-10T12:02:10.545Z,66.08
2019-05-10T12:03:15.436Z,64.24
2019-05-10T12:04:15.333Z,65.81
2019-05-10T12:06:12.031Z,68.16
2019-05-10T12:07:12.692Z,69.18
2019-05-10T12:08:12.676Z,70.21
2019-05-10T12:09:12.345Z,71.61
2019-05-10T12:10:17.917Z,71.87
2019-05-10T12:11:25.492Z,71.58
2019-05-10T12:12:11.974Z,72.31
2019-05-10T12:13:15.817Z,73.91
2019-05-10T12:14:13.546Z,73.81
2019-05-10T12:15:08.609Z,74.64
2019-05-10T12:16:11.789Z,74.51
2019-05-10T12:17:13.835Z,74.69
2019-05-10T12:18:08.386Z,75.43
2019-05-10T12:19:16.928Z,75.62
2019-05-10T12:20:12.531Z,75.81
2019-05-10T12:21:09.554Z,75.56
2019-05-10T12:22:08.072Z,74.57
2019-05-10T12:23:13.477Z,75.23
2019-05-10T12:24:26.114Z,75.71
2019-05-10T12:25:35.064Z,74.66
2019-05-10T12:26:05.894Z,72.54
2019-05-10T12:26:06.159Z,66.49
2019-05-10T12:27:20.990Z,75.68
2019-05-10T12:28:07.610Z,76.15
2019-05-10T12:29:12.282Z,77.40
2019-05-10T12:30:07.467Z,79.60
2019-05-10T12:31:07.734Z,81.48
2019-05-10T12:32:07.298Z,83.30
2019-05-10T12:33:09.887Z,87.47
2019-05-10T12:34:10.184Z,89.62
2019-05-10T12:35:07.077Z,92.30
2019-05-10T12:36:13.507Z,93.93
2019-05-10T12:37:08.369Z,96.13
2019-05-10T12:38:06.825Z,97.13
2019-05-10T12:39:06.748Z,97.90
2019-05-10T12:40:11.802Z,99.52
2019-05-10T12:41:06.600Z,99.99
2019-05-10T12:42:06.513Z,99.99
2019-05-10T12:43:06.437Z,99.99
2019-05-10T12:44:07.449Z,99.99
2019-05-10T12:45:06.287Z,99.99
2019-05-10T12:46:06.199Z,99.99
2019-05-10T12:47:06.119Z,99.99
2019-05-10T12:48:06.037Z,99.99
2019-05-10T12:49:05.973Z,99.99
2019-05-10T12:50:05.877Z,99.99
2019-05-10T12:51:11.573Z,99.99
2019-05-10T12:52:09.092Z,99.99